Time;durP1;ratioP1;P1;durP2;ratioP2;P2;SDS_P1;SDS_P2;PMS_P1;PMS_P2;Temp;Humidity;BMP_temperature;BMP_pressure;BME280_temperature;BME280_humidity;BME280_pressure;Samples;Min_cycle;Max_cycle;Signal;HPM_P1;HPM_P2
2022/11/05 00:09:28;;;;;;;;;;;;;;;10.96;66.98;94993.03;5050299;28;20020;-70
2022/11/05 00:17:22;;;;;;;;;;;;;;;10.74;66.37;95002.66;5050457;28;20493;-71
2022/11/05 00:19:47;;;;;;;;;;;;;;;10.41;64.74;94999.56;5065603;28;20013;-71
2022/11/05 00:27:40;;;;;;;;;;;;;;;11.02;66.65;95018.41;5049614;28;20032;-70
2022/11/05 00:30:06;;;;;;;;;;;;;;;11.12;66.78;95012.78;5048583;28;20391;-71
2022/11/05 00:32:31;;;;;;;;;;;;;;;11.22;66.59;95023.16;5050598;28;20024;-71
2022/11/05 00:34:57;;;;;;;;;;;;;;;11.31;66.25;95023.97;5048244;28;20005;-71
2022/11/05 00:37:22;;;;;;;;;;;;;;;11.33;65.94;95026.31;5047650;28;20017;-71
2022/11/05 00:39:47;;;;;;;;;;;;;;;11.33;65.25;95028.97;5046933;28;20101;-71
2022/11/05 00:45:00;;;;;;;;;;;;;;;11.30;65.63;95034.91;5033910;28;20063;-71
2022/11/05 00:50:10;;;;;;;;;;;;;;;11.23;64.64;95035.38;5049659;28;20432;-71
2022/11/05 00:55:19;;;;;;;;;;;;;;;11.12;64.53;95044.75;5049437;28;20013;-72
2022/11/05 00:57:44;;;;;;;;;;;;;;;11.15;64.73;95036.13;5064864;28;20014;-72
2022/11/05 01:00:10;;;;;;;;;;;;;;;11.16;65.48;95035.06;5049584;28;20001;-72
2022/11/05 01:02:35;;;;;;;;;;;;;;;11.18;64.80;95038.19;5048585;28;20017;-72
2022/11/05 01:05:01;;;;;;;;;;;;;;;11.16;64.15;95030.50;5049200;28;20022;-71
2022/11/05 01:07:26;;;;;;;;;;;;;;;11.07;64.47;95028.91;5048249;28;20489;-71
2022/11/05 01:09:51;;;;;;;;;;;;;;;10.55;63.35;95026.84;5049482;28;20026;-72
2022/11/05 01:12:16;;;;;;;;;;;;;;;10.12;64.03;95031.88;5049112;28;20009;-72
2022/11/05 01:14:41;;;;;;;;;;;;;;;9.93;65.08;95031.25;5046562;28;20067;-71
2022/11/05 01:17:07;;;;;;;;;;;;;;;9.97;65.49;95035.69;5049826;28;20377;-71
2022/11/05 01:19:32;;;;;;;;;;;;;;;9.95;65.97;95045.84;5050240;28;20417;-72
2022/11/05 01:21:57;;;;;;;;;;;;;;;10.07;66.57;95053.25;5048432;28;20076;-71
2022/11/05 01:24:22;;;;;;;;;;;;;;;10.11;65.44;95052.34;5050405;28;20296;-71
2022/11/05 01:26:47;;;;;;;;;;;;;;;10.01;65.02;95057.13;5049164;28;20010;-72
2022/11/05 01:29:13;;;;;;;;;;;;;;;9.97;65.85;95061.47;5049107;28;20045;-71
2022/11/05 01:31:38;;;;;;;;;;;;;;;9.81;65.36;95056.50;5048573;28;20013;-71
2022/11/05 01:34:03;;;;;;;;;;;;;;;10.04;65.85;95062.63;5049955;28;20028;-71
2022/11/05 01:36:28;;;;;;;;;;;;;;;10.01;66.21;95060.56;5047897;28;20048;-71
2022/11/05 01:38:54;;;;;;;;;;;;;;;9.82;65.03;95059.94;5049185;28;20014;-71
2022/11/05 01:41:19;;;;;;;;;;;;;;;10.21;65.96;95066.50;5049114;28;20108;-73
2022/11/05 01:43:46;;;;;;;;;;;;;;;10.37;66.68;95062.41;5053636;28;20010;-71
2022/11/05 01:46:12;;;;;;;;;;;;;;;10.48;66.39;95060.25;5051240;28;20084;-73
2022/11/05 01:48:37;;;;;;;;;;;;;;;10.55;66.20;95052.66;5053681;28;20522;-71
2022/11/05 01:51:10;;;;;;;;;;;;;;;10.59;66.05;95058.91;5052967;28;20585;-72
2022/11/05 01:53:42;;;;;;;;;;;;;;;10.63;65.90;95065.19;5052129;28;20014;-71
2022/11/05 01:56:13;;;;;;;;;;;;;;;10.66;65.69;95062.72;5052158;28;20019;-71
2022/11/05 01:58:47;;;;;;;;;;;;;;;10.64;65.75;95066.75;5051543;28;20386;-71
2022/11/05 02:01:13;;;;;;;;;;;;;;;10.58;65.34;95065.31;5051739;28;20024;-72
2022/11/05 02:03:38;;;;;;;;;;;;;;;10.54;65.45;95069.69;5052718;28;20013;-71
2022/11/05 02:06:08;;;;;;;;;;;;;;;10.50;65.82;95066.09;5050780;28;20013;-72
2022/11/05 02:08:51;;;;;;;;;;;;;;;10.47;65.96;95077.31;5052178;28;20045;-71
2022/11/05 02:11:18;;;;;;;;;;;;;;;10.45;65.73;95068.88;5052240;28;20462;-72
2022/11/05 02:13:44;;;;;;;;;;;;;;;10.45;65.59;95079.50;5052757;28;20014;-71
2022/11/05 02:16:16;;;;;;;;;;;;;;;10.41;66.15;95069.47;5065995;28;20048;-71
2022/11/05 02:18:44;;;;;;;;;;;;;;;10.38;65.12;95069.28;5052438;28;20110;-72
2022/11/05 02:21:30;;;;;;;;;;;;;;;10.31;65.48;95061.75;5052397;28;20013;-71
2022/11/05 02:24:08;;;;;;;;;;;;;;;10.24;65.54;95068.59;5050765;28;20013;-72
2022/11/05 02:26:54;;;;;;;;;;;;;;;10.15;65.83;95066.63;5052632;28;20028;-71
2022/11/05 02:29:37;;;;;;;;;;;;;;;10.05;66.62;95056.22;5051217;28;20017;-71
2022/11/05 02:32:14;;;;;;;;;;;;;;;9.92;66.22;95061.59;5052221;28;20020;-71
2022/11/05 02:34:42;;;;;;;;;;;;;;;9.82;66.09;95068.69;5052905;28;20362;-71
2022/11/05 02:37:20;;;;;;;;;;;;;;;9.77;66.82;95065.38;5049656;28;20032;-71
2022/11/05 02:39:45;;;;;;;;;;;;;;;9.70;66.84;95071.09;5052854;28;20049;-72
2022/11/05 02:42:11;;;;;;;;;;;;;;;9.64;67.36;95074.97;5052160;28;20045;-72
2022/11/05 02:44:38;;;;;;;;;;;;;;;9.64;67.18;95069.66;5051837;28;20024;-73
2022/11/05 02:47:06;;;;;;;;;;;;;;;9.58;66.99;95073.50;5050228;28;20097;-71
2022/11/05 02:49:37;;;;;;;;;;;;;;;9.29;67.69;95071.97;5053077;28;20521;-71
2022/11/05 02:52:05;;;;;;;;;;;;;;;9.50;67.78;95074.97;5051809;28;20014;-71
2022/11/05 02:54:30;;;;;;;;;;;;;;;9.50;67.87;95079.50;5052206;28;20493;-71
2022/11/05 02:56:58;;;;;;;;;;;;;;;9.47;67.88;95085.41;5051643;28;20053;-71
2022/11/05 02:59:23;;;;;;;;;;;;;;;9.47;67.98;95080.09;5050383;28;20033;-71
2022/11/05 03:01:49;;;;;;;;;;;;;;;9.48;68.23;95087.00;5050573;28;20009;-71
2022/11/05 03:04:18;;;;;;;;;;;;;;;9.56;68.16;95097.69;5052522;28;20005;-71
2022/11/05 03:07:01;;;;;;;;;;;;;;;9.67;68.83;95092.94;5050917;28;20013;-71
2022/11/05 03:09:26;;;;;;;;;;;;;;;9.87;68.37;95091.72;5051709;28;20017;-72
2022/11/05 03:12:17;;;;;;;;;;;;;;;10.07;68.40;95101.09;5050175;28;20124;-71
2022/11/05 03:14:46;;;;;;;;;;;;;;;10.29;68.13;95101.16;5065431;28;20134;-71
2022/11/05 03:17:15;;;;;;;;;;;;;;;10.49;67.62;95109.69;5051058;28;20494;-72
2022/11/05 03:19:49;;;;;;;;;;;;;;;10.64;67.38;95109.31;5051047;28;20108;-71
2022/11/05 03:22:21;;;;;;;;;;;;;;;10.33;66.14;95112.72;5050307;28;20940;-71
2022/11/05 03:24:49;;;;;;;;;;;;;;;10.65;66.95;95116.22;5049596;28;20020;-71
2022/11/05 03:27:18;;;;;;;;;;;;;;;10.85;66.96;95125.56;5050658;28;20009;-71
2022/11/05 03:29:50;;;;;;;;;;;;;;;11.02;66.99;95125.66;5049916;28;20018;-72
2022/11/05 03:32:16;;;;;;;;;;;;;;;11.18;66.75;95134.03;5051065;28;20021;-71
2022/11/05 03:34:45;;;;;;;;;;;;;;;11.31;66.39;95140.31;5050044;28;20018;-71
2022/11/05 03:37:10;;;;;;;;;;;;;;;11.44;65.87;95142.09;5050073;28;20009;-72
2022/11/05 03:39:44;;;;;;;;;;;;;;;11.51;65.75;95145.09;5049493;28;20497;-71
2022/11/05 03:42:12;;;;;;;;;;;;;;;11.59;65.67;95149.66;5050921;28;20354;-71
2022/11/05 03:44:39;;;;;;;;;;;;;;;11.65;65.28;95156.41;5050796;28;20449;-72
2022/11/05 03:47:07;;;;;;;;;;;;;;;11.71;65.00;95159.72;5049256;28;20385;-72
2022/11/05 03:49:47;;;;;;;;;;;;;;;11.76;64.67;95158.78;5050651;28;20128;-72
2022/11/05 03:52:15;;;;;;;;;;;;;;;11.77;63.89;95173.69;5051828;28;20012;-72
2022/11/05 03:54:40;;;;;;;;;;;;;;;11.79;64.13;95174.94;5049351;28;20020;-72
2022/11/05 03:57:06;;;;;;;;;;;;;;;11.78;64.03;95176.06;5050219;28;20390;-71
2022/11/05 03:59:37;;;;;;;;;;;;;;;11.81;63.68;95178.06;5050505;28;20013;-71
2022/11/05 04:02:02;;;;;;;;;;;;;;;11.86;63.98;95172.63;5065485;28;20014;-71
2022/11/05 04:04:27;;;;;;;;;;;;;;;11.91;64.36;95180.47;5049892;28;20040;-72
2022/11/05 04:15:04;;;;;;;;;;;;;;;12.00;63.22;95182.38;5049662;28;20020;-72
2022/11/05 04:17:29;;;;;;;;;;;;;;;12.04;63.37;95181.47;5051062;28;20009;-72
2022/11/05 04:25:22;;;;;;;;;;;;;;;12.14;63.21;95191.81;5050059;28;20020;-71
2022/11/05 04:27:47;;;;;;;;;;;;;;;12.15;63.24;95182.72;5048542;28;20013;-72
2022/11/05 04:30:20;;;;;;;;;;;;;;;12.15;63.11;95188.06;5048197;28;20039;-71
2022/11/05 04:33:05;;;;;;;;;;;;;;;12.05;63.43;95185.69;5050208;28;20021;-71
2022/11/05 04:35:41;;;;;;;;;;;;;;;12.01;64.17;95197.28;5033957;28;20017;-71
2022/11/05 04:38:07;;;;;;;;;;;;;;;12.03;64.28;95195.91;5049318;28;20563;-71
2022/11/05 04:40:32;;;;;;;;;;;;;;;12.07;64.62;95196.03;5049964;28;20488;-72
2022/11/05 04:42:58;;;;;;;;;;;;;;;12.10;64.28;95190.09;5049852;28;20006;-72
2022/11/05 04:45:24;;;;;;;;;;;;;;;12.13;63.55;95192.94;5048081;28;20025;-70
2022/11/05 04:47:49;;;;;;;;;;;;;;;12.19;64.04;95190.91;5049675;28;20014;-71
2022/11/05 04:50:15;;;;;;;;;;;;;;;12.26;63.94;95193.09;5049539;28;20147;-71
2022/11/05 04:52:40;;;;;;;;;;;;;;;12.30;63.51;95196.69;5049792;28;20017;-71
2022/11/05 04:55:06;;;;;;;;;;;;;;;12.30;63.99;95199.38;5047506;28;20013;-71
2022/11/05 04:57:31;;;;;;;;;;;;;;;12.27;64.20;95203.44;5050591;28;20092;-72
2022/11/05 04:59:56;;;;;;;;;;;;;;;12.13;64.79;95206.25;5062140;28;20112;-71
2022/11/05 05:02:21;;;;;;;;;;;;;;;12.05;66.89;95206.22;5048704;28;20473;-71
2022/11/05 05:04:47;;;;;;;;;;;;;;;11.62;67.91;95217.53;5048532;28;20013;-71
2022/11/05 05:07:12;;;;;;;;;;;;;;;11.51;69.07;95216.22;5050358;28;20010;-72
2022/11/05 05:09:37;;;;;;;;;;;;;;;11.52;69.11;95217.81;5048463;28;20075;-71
2022/11/05 05:12:02;;;;;;;;;;;;;;;11.58;70.71;95224.56;5049815;28;20013;-71
2022/11/05 05:14:28;;;;;;;;;;;;;;;11.37;70.00;95214.47;5049035;28;20010;-71
2022/11/05 05:16:53;;;;;;;;;;;;;;;11.30;68.73;95227.41;5049876;28;20079;-71
2022/11/05 05:19:18;;;;;;;;;;;;;;;11.05;69.79;95228.06;5050148;28;20016;-72
2022/11/05 05:21:43;;;;;;;;;;;;;;;10.20;70.22;95230.53;5050127;28;20006;-71
2022/11/05 05:24:13;;;;;;;;;;;;;;;10.45;71.58;95229.22;5046839;28;20018;-72
2022/11/05 05:26:43;;;;;;;;;;;;;;;10.81;71.96;95228.38;5049159;28;20021;-71
2022/11/05 05:29:08;;;;;;;;;;;;;;;10.81;72.78;95233.72;5047575;28;20014;-71
2022/11/05 05:31:34;;;;;;;;;;;;;;;10.98;72.17;95241.00;5048263;28;20017;-70
2022/11/05 05:33:59;;;;;;;;;;;;;;;11.14;72.92;95236.88;5049224;28;20006;-71
2022/11/05 05:36:25;;;;;;;;;;;;;;;11.28;72.91;95240.25;5047985;28;20018;-71
2022/11/05 05:38:50;;;;;;;;;;;;;;;11.42;73.30;95240.97;5049092;28;20017;-72
2022/11/05 05:41:16;;;;;;;;;;;;;;;11.56;73.29;95235.50;5048341;28;20056;-71
2022/11/05 05:43:41;;;;;;;;;;;;;;;11.64;72.79;95242.00;5049038;28;20056;-71
2022/11/05 05:46:08;;;;;;;;;;;;;;;11.69;73.11;95245.28;5048728;28;20486;-72
2022/11/05 05:48:33;;;;;;;;;;;;;;;11.77;72.94;95241.06;5046773;28;20025;-71
2022/11/05 05:51:03;;;;;;;;;;;;;;;11.83;72.63;95241.78;5064326;28;20382;-71
2022/11/05 05:53:28;;;;;;;;;;;;;;;11.91;73.25;95251.66;5047188;28;20055;-71
2022/11/05 05:55:54;;;;;;;;;;;;;;;11.96;73.23;95246.97;5047825;28;20013;-71
2022/11/05 05:58:19;;;;;;;;;;;;;;;12.04;73.44;95258.78;5047442;28;20014;-73
2022/11/05 06:00:44;;;;;;;;;;;;;;;12.11;73.24;95258.31;5048245;28;20068;-71
2022/11/05 06:03:10;;;;;;;;;;;;;;;12.16;72.76;95258.16;5049497;28;20381;-70
2022/11/05 06:05:35;;;;;;;;;;;;;;;12.20;72.54;95259.91;5047246;28;20020;-71
2022/11/05 06:08:00;;;;;;;;;;;;;;;12.21;72.48;95258.03;5049774;28;20012;-71
2022/11/05 06:10:25;;;;;;;;;;;;;;;12.22;72.08;95262.25;5047716;28;20040;-72
2022/11/05 06:12:50;;;;;;;;;;;;;;;12.23;72.22;95267.31;5048851;28;20112;-70
2022/11/05 06:15:16;;;;;;;;;;;;;;;12.25;72.10;95266.97;5048875;28;20100;-71
2022/11/05 06:17:44;;;;;;;;;;;;;;;12.22;71.57;95267.59;5048264;28;20156;-70
2022/11/05 06:20:10;;;;;;;;;;;;;;;12.21;71.56;95274.81;5048380;28;20013;-70
2022/11/05 06:22:35;;;;;;;;;;;;;;;12.24;71.39;95278.75;5049537;28;20067;-71
2022/11/05 06:25:01;;;;;;;;;;;;;;;11.77;68.77;95277.59;5047637;28;20079;-71
2022/11/05 06:27:27;;;;;;;;;;;;;;;11.80;69.84;95283.13;5050831;28;20014;-70
2022/11/05 06:29:52;;;;;;;;;;;;;;;11.63;70.57;95280.38;5051414;28;20025;-71
2022/11/05 06:32:17;;;;;;;;;;;;;;;11.80;70.59;95282.34;5067446;28;20358;-70
2022/11/05 06:34:42;;;;;;;;;;;;;;;11.87;70.73;95286.13;5050750;28;20013;-71
2022/11/05 06:37:08;;;;;;;;;;;;;;;11.63;68.66;95293.72;5052726;28;20101;-72
2022/11/05 06:39:33;;;;;;;;;;;;;;;11.71;69.14;95295.59;5066084;28;20014;-71
2022/11/05 06:41:58;;;;;;;;;;;;;;;11.83;69.64;95292.41;5052965;28;20469;-71
2022/11/05 06:44:24;;;;;;;;;;;;;;;11.93;69.11;95305.47;5051830;28;20057;-71
2022/11/05 06:46:49;;;;;;;;;;;;;;;11.97;69.70;95312.53;5051506;28;20013;-71
2022/11/05 06:49:14;;;;;;;;;;;;;;;12.16;70.71;95314.16;5050193;28;20021;-70
2022/11/05 06:51:39;;;;;;;;;;;;;;;12.30;70.91;95322.06;5052112;28;20386;-71
2022/11/05 06:54:04;;;;;;;;;;;;;;;12.38;70.36;95324.72;5051718;28;20010;-71
2022/11/05 06:56:30;;;;;;;;;;;;;;;12.25;68.33;95327.53;5051321;28;20036;-69
2022/11/05 06:58:55;;;;;;;;;;;;;;;12.45;69.83;95327.75;5056679;28;20009;-72
2022/11/05 07:01:20;;;;;;;;;;;;;;;12.59;69.77;95329.47;5051822;28;20116;-68
2022/11/05 07:03:47;;;;;;;;;;;;;;;12.69;69.47;95334.53;5066770;28;20009;-68
2022/11/05 07:06:13;;;;;;;;;;;;;;;12.77;69.31;95333.75;5051340;28;20013;-68
2022/11/05 07:08:38;;;;;;;;;;;;;;;12.82;68.37;95332.81;5050207;28;20014;-70
2022/11/05 07:11:03;;;;;;;;;;;;;;;12.90;68.69;95340.84;5051608;28;20014;-71
2022/11/05 07:13:29;;;;;;;;;;;;;;;13.00;68.79;95350.44;5051509;28;20012;-72
2022/11/05 07:15:54;;;;;;;;;;;;;;;13.04;67.76;95351.34;5051002;28;20525;-68
2022/11/05 07:18:19;;;;;;;;;;;;;;;13.08;67.72;95357.66;5050337;28;20378;-73
2022/11/05 07:20:44;;;;;;;;;;;;;;;13.21;67.82;95363.94;5050813;28;20096;-71
2022/11/05 07:23:10;;;;;;;;;;;;;;;13.31;67.39;95366.34;5052646;28;20013;-69
2022/11/05 07:25:36;;;;;;;;;;;;;;;13.43;67.06;95371.81;5049543;28;20444;-72
2022/11/05 07:28:02;;;;;;;;;;;;;;;13.56;67.05;95367.38;5048985;28;20112;-71
2022/11/05 07:30:27;;;;;;;;;;;;;;;13.61;66.25;95369.88;5050646;28;20014;-71
2022/11/05 07:32:53;;;;;;;;;;;;;;;13.69;65.75;95374.44;5051489;28;20016;-71
2022/11/05 07:35:18;;;;;;;;;;;;;;;13.62;64.96;95381.41;5048464;28;20017;-70
2022/11/05 07:37:44;;;;;;;;;;;;;;;13.66;65.77;95376.97;5051136;28;20013;-71
2022/11/05 07:40:10;;;;;;;;;;;;;;;13.70;64.30;95380.56;5046982;28;20005;-72
2022/11/05 07:42:35;;;;;;;;;;;;;;;13.80;64.49;95385.59;5049652;28;20116;-71
2022/11/05 07:45:00;;;;;;;;;;;;;;;13.81;65.79;95389.81;5066151;28;20116;-69
2022/11/05 07:47:25;;;;;;;;;;;;;;;13.89;64.15;95389.03;5033611;28;20018;-68
2022/11/05 07:49:51;;;;;;;;;;;;;;;13.88;64.41;95384.00;5037028;28;20071;-70
2022/11/05 07:52:16;;;;;;;;;;;;;;;14.11;62.96;95382.69;5049163;28;20040;-68
2022/11/05 07:54:41;;;;;;;;;;;;;;;13.72;61.55;95391.75;5050504;28;20491;-69
2022/11/05 07:57:07;;;;;;;;;;;;;;;13.32;61.66;95386.59;5050801;28;20489;-69
2022/11/05 07:59:32;;;;;;;;;;;;;;;12.87;63.38;95394.06;5050531;28;20009;-70
2022/11/05 08:01:57;;;;;;;;;;;;;;;12.95;64.72;95393.31;5051233;28;20405;-71
2022/11/05 08:04:22;;;;;;;;;;;;;;;13.15;64.50;95392.66;5043792;28;20013;-69
2022/11/05 08:06:47;;;;;;;;;;;;;;;12.85;64.43;95397.06;5047716;28;20020;-68
2022/11/05 08:09:13;;;;;;;;;;;;;;;13.64;63.86;95401.34;5049561;28;20485;-67
2022/11/05 08:11:38;;;;;;;;;;;;;;;13.89;62.88;95402.41;5048239;28;20044;-68
2022/11/05 08:14:04;;;;;;;;;;;;;;;13.10;63.66;95402.72;5050553;28;20013;-68
2022/11/05 08:16:29;;;;;;;;;;;;;;;12.59;65.71;95402.34;5049564;28;20014;-68
2022/11/05 08:18:54;;;;;;;;;;;;;;;12.43;65.24;95393.16;5046754;28;20740;-69
2022/11/05 08:21:19;;;;;;;;;;;;;;;12.28;65.58;95407.69;5050962;28;20014;-68
2022/11/05 08:23:45;;;;;;;;;;;;;;;11.95;68.57;95402.69;5049226;28;20037;-69
2022/11/05 08:26:10;;;;;;;;;;;;;;;11.67;68.75;95410.03;5065798;28;20064;-69
2022/11/05 08:28:35;;;;;;;;;;;;;;;12.78;66.46;95407.38;5047635;28;20063;-69
2022/11/05 08:31:00;;;;;;;;;;;;;;;13.34;64.13;95405.75;5050203;28;20411;-68
2022/11/05 08:33:26;;;;;;;;;;;;;;;12.73;65.14;95408.31;5049568;28;20101;-68
2022/11/05 08:35:52;;;;;;;;;;;;;;;13.47;64.38;95402.16;5047606;28;20017;-68
2022/11/05 08:38:18;;;;;;;;;;;;;;;12.83;64.97;95409.13;5043695;28;20017;-68
2022/11/05 08:40:44;;;;;;;;;;;;;;;12.61;65.83;95408.13;5049174;28;20559;-68
2022/11/05 08:43:10;;;;;;;;;;;;;;;11.51;68.30;95408.00;5050851;28;20006;-68
2022/11/05 08:45:36;;;;;;;;;;;;;;;10.91;71.08;95407.22;5050357;28;20374;-68
2022/11/05 08:48:03;;;;;;;;;;;;;;;10.41;72.63;95403.72;5047890;28;20023;-70
2022/11/05 08:50:29;;;;;;;;;;;;;;;10.58;72.85;95398.59;5046534;28;20014;-69
2022/11/05 08:52:54;;;;;;;;;;;;;;;11.11;71.98;95399.91;5050515;28;20017;-70
2022/11/05 08:55:20;;;;;;;;;;;;;;;11.22;70.35;95409.22;5046985;28;20016;-69
2022/11/05 08:57:45;;;;;;;;;;;;;;;11.82;70.13;95408.09;5035193;28;20073;-68
2022/11/05 09:00:11;;;;;;;;;;;;;;;12.08;67.81;95408.22;5044034;28;20009;-68
2022/11/05 09:02:36;;;;;;;;;;;;;;;11.65;67.73;95411.41;5049588;28;20013;-68
2022/11/05 09:05:01;;;;;;;;;;;;;;;11.42;70.64;95413.31;5047017;28;20017;-69
2022/11/05 09:07:27;;;;;;;;;;;;;;;11.34;69.68;95414.78;5048370;28;20010;-70
2022/11/05 09:09:53;;;;;;;;;;;;;;;11.44;69.48;95422.56;5064475;28;20013;-69
2022/11/05 09:12:18;;;;;;;;;;;;;;;11.67;69.41;95419.91;5048486;28;20510;-68
2022/11/05 09:14:43;;;;;;;;;;;;;;;11.07;70.97;95420.22;5048328;28;20071;-69
2022/11/05 09:17:15;;;;;;;;;;;;;;;12.00;69.97;95415.09;5049223;28;20378;-68
2022/11/05 09:19:40;;;;;;;;;;;;;;;12.83;67.67;95417.13;5047511;28;20014;-69
2022/11/05 09:22:05;;;;;;;;;;;;;;;12.26;67.11;95420.56;5050790;28;20596;-68
2022/11/05 09:24:30;;;;;;;;;;;;;;;12.17;66.64;95422.41;5080597;28;20010;-69
2022/11/05 09:26:55;;;;;;;;;;;;;;;12.65;66.53;95421.66;5046958;28;20014;-69
2022/11/05 09:29:21;;;;;;;;;;;;;;;12.42;65.20;95426.28;5049397;28;20017;-70
2022/11/05 09:31:46;;;;;;;;;;;;;;;11.41;69.56;95425.84;5049717;28;20533;-73
2022/11/05 09:34:11;;;;;;;;;;;;;;;11.67;69.59;95427.91;5047150;28;20021;-68
2022/11/05 09:36:36;;;;;;;;;;;;;;;11.37;70.80;95427.53;5049894;28;20017;-69
2022/11/05 09:39:01;;;;;;;;;;;;;;;11.54;71.11;95428.72;5047436;28;20545;-68
2022/11/05 09:41:30;;;;;;;;;;;;;;;10.56;73.75;95435.34;5048385;28;20010;-69
2022/11/05 09:44:01;;;;;;;;;;;;;;;10.98;74.22;95441.41;5047483;28;20021;-71
2022/11/05 09:46:28;;;;;;;;;;;;;;;11.02;72.77;95446.94;5046253;28;20033;-68
2022/11/05 09:49:06;;;;;;;;;;;;;;;11.67;71.29;95443.88;5044883;28;20017;-70
2022/11/05 09:51:31;;;;;;;;;;;;;;;10.54;72.97;95453.47;5047073;28;20017;-70
2022/11/05 09:53:58;;;;;;;;;;;;;;;10.43;73.97;95453.94;5049828;28;20016;-68
2022/11/05 09:56:28;;;;;;;;;;;;;;;11.18;71.25;95445.53;5047824;28;20017;-67
2022/11/05 09:59:05;;;;;;;;;;;;;;;10.61;72.60;95461.84;5048571;28;20461;-71
2022/11/05 10:01:33;;;;;;;;;;;;;;;11.13;72.33;95456.28;5047504;28;20014;-69
2022/11/05 10:04:00;;;;;;;;;;;;;;;11.64;71.15;95455.94;5052523;28;20002;-70
2022/11/05 10:06:26;;;;;;;;;;;;;;;11.48;71.42;95459.25;5048957;28;20014;-69
2022/11/05 10:09:07;;;;;;;;;;;;;;;10.64;73.70;95466.56;5052191;28;20021;-70
2022/11/05 10:11:36;;;;;;;;;;;;;;;11.46;71.66;95462.19;5052746;28;20013;-70
2022/11/05 10:14:06;;;;;;;;;;;;;;;11.59;70.62;95465.91;5068443;28;20014;-69
2022/11/05 10:16:34;;;;;;;;;;;;;;;10.86;72.42;95479.19;5051406;28;20057;-70
2022/11/05 10:19:05;;;;;;;;;;;;;;;10.35;74.22;95474.06;5050965;28;20013;-68
2022/11/05 10:21:31;;;;;;;;;;;;;;;10.78;73.90;95469.22;5049518;28;20112;-70
2022/11/05 10:23:56;;;;;;;;;;;;;;;10.46;74.29;95474.66;5051029;28;20112;-68
2022/11/05 10:26:25;;;;;;;;;;;;;;;11.35;71.97;95468.84;5052525;28;20053;-67
2022/11/05 10:28:51;;;;;;;;;;;;;;;11.62;71.46;95466.09;5051324;28;20017;-70
2022/11/05 10:31:19;;;;;;;;;;;;;;;11.26;71.95;95473.28;5052002;28;20170;-70
2022/11/05 10:33:45;;;;;;;;;;;;;;;11.11;72.55;95472.56;5068799;28;20010;-69
2022/11/05 10:36:13;;;;;;;;;;;;;;;10.58;74.34;95477.59;5048760;28;20584;-70
2022/11/05 10:38:39;;;;;;;;;;;;;;;10.86;73.96;95475.75;5053277;28;20005;-69
2022/11/05 10:41:04;;;;;;;;;;;;;;;11.69;70.90;95477.13;5040700;28;20363;-71
2022/11/05 10:43:33;;;;;;;;;;;;;;;12.11;69.88;95472.41;5050032;28;20013;-71
2022/11/05 10:46:17;;;;;;;;;;;;;;;12.43;68.76;95470.53;5048209;28;20014;-70
2022/11/05 10:48:49;;;;;;;;;;;;;;;12.66;67.29;95476.59;5052951;28;20010;-70
2022/11/05 10:51:15;;;;;;;;;;;;;;;12.40;67.16;95481.84;5052288;28;20021;-69
2022/11/05 10:53:44;;;;;;;;;;;;;;;13.27;64.71;95477.59;5052500;28;20013;-72
2022/11/05 10:56:28;;;;;;;;;;;;;;;12.67;66.01;95491.53;5064541;28;20013;-69
2022/11/05 10:58:55;;;;;;;;;;;;;;;13.22;64.52;95488.41;5064816;28;20108;-69
2022/11/05 11:01:21;;;;;;;;;;;;;;;12.40;66.12;95489.84;5051207;28;20359;-74
2022/11/05 11:03:49;;;;;;;;;;;;;;;12.77;66.21;95485.13;5046701;28;20017;-69
2022/11/05 11:06:25;;;;;;;;;;;;;;;12.80;65.96;95485.28;5045236;28;20059;-70
2022/11/05 11:08:52;;;;;;;;;;;;;;;14.08;64.47;95486.88;5047707;28;20014;-68
2022/11/05 11:11:44;;;;;;;;;;;;;;;13.82;61.97;95481.53;5032870;28;20749;-69
2022/11/05 11:14:12;;;;;;;;;;;;;;;13.31;62.88;95485.75;5047345;28;20018;-72
2022/11/05 11:16:38;;;;;;;;;;;;;;;13.32;63.47;95477.44;5049885;28;20014;-68
2022/11/05 11:19:20;;;;;;;;;;;;;;;13.17;63.44;95478.63;5052932;28;20006;-69
2022/11/05 11:21:45;;;;;;;;;;;;;;;13.73;62.86;95481.53;5052190;28;20014;-69
2022/11/05 11:24:19;;;;;;;;;;;;;;;12.73;63.21;95479.59;5050891;28;20382;-70
2022/11/05 11:26:44;;;;;;;;;;;;;;;13.15;64.12;95480.03;5047395;28;20609;-71
2022/11/05 11:29:09;;;;;;;;;;;;;;;12.93;63.30;95484.38;5043441;28;20112;-76
2022/11/05 11:31:36;;;;;;;;;;;;;;;13.12;63.22;95492.13;5050551;28;20021;-71
2022/11/05 11:34:04;;;;;;;;;;;;;;;12.18;65.35;95496.78;5050801;28;20032;-71
2022/11/05 11:36:34;;;;;;;;;;;;;;;12.17;66.74;95494.41;5051546;28;20083;-72
2022/11/05 11:39:01;;;;;;;;;;;;;;;11.36;68.39;95505.03;5051006;28;20016;-71
2022/11/05 11:41:32;;;;;;;;;;;;;;;11.08;69.52;95501.66;5050924;28;20009;-73
2022/11/05 11:44:22;;;;;;;;;;;;;;;11.20;68.84;95443.34;5051317;28;20014;-70
2022/11/05 11:46:48;;;;;;;;;;;;;;;10.91;68.55;95516.34;5045559;28;20071;-70
2022/11/05 11:49:29;;;;;;;;;;;;;;;11.23;69.82;95509.31;5050814;28;20109;-70
2022/11/05 11:51:58;;;;;;;;;;;;;;;11.88;66.39;95508.97;5050503;28;20553;-70
2022/11/05 11:54:23;;;;;;;;;;;;;;;11.31;67.42;95502.47;5051013;28;20018;-69
2022/11/05 11:56:49;;;;;;;;;;;;;;;11.03;68.86;95509.72;5049646;28;20060;-71
2022/11/05 11:59:25;;;;;;;;;;;;;;;10.64;69.46;95508.34;5050276;28;20039;-71
2022/11/05 12:01:50;;;;;;;;;;;;;;;11.44;68.28;95509.66;5049384;28;20025;-70
2022/11/05 12:04:18;;;;;;;;;;;;;;;11.23;68.54;95508.53;5048758;28;20013;-70
2022/11/05 12:07:02;;;;;;;;;;;;;;;10.80;69.11;95517.63;5050744;28;20063;-70
2022/11/05 12:09:46;;;;;;;;;;;;;;;10.84;70.48;95520.47;5051051;28;20469;-71
2022/11/05 12:12:13;;;;;;;;;;;;;;;11.15;69.48;95510.00;5050079;28;20512;-71
2022/11/05 12:14:44;;;;;;;;;;;;;;;12.36;66.45;95513.66;5050140;28;20112;-72
2022/11/05 12:17:23;;;;;;;;;;;;;;;12.40;65.67;95501.28;5048149;28;20021;-72
2022/11/05 12:19:52;;;;;;;;;;;;;;;12.68;63.86;95509.88;5050288;28;20013;-70
2022/11/05 12:22:35;;;;;;;;;;;;;;;12.96;63.21;95505.13;5048594;28;20096;-72
2022/11/05 12:25:01;;;;;;;;;;;;;;;12.87;63.50;95508.88;5048001;28;20462;-71
2022/11/05 12:27:26;;;;;;;;;;;;;;;13.26;63.24;95505.41;5051199;28;20006;-69
2022/11/05 12:29:51;;;;;;;;;;;;;;;11.37;68.49;95514.63;5050054;28;20040;-71
2022/11/05 12:32:25;;;;;;;;;;;;;;;11.69;71.16;95510.97;5048179;28;20068;-68
2022/11/05 12:35:00;;;;;;;;;;;;;;;12.52;66.13;95516.72;5040428;28;20014;-68
2022/11/05 12:37:44;;;;;;;;;;;;;;;12.61;65.92;95514.88;5049505;28;20021;-73
2022/11/05 12:40:24;;;;;;;;;;;;;;;12.71;65.27;95505.81;5049997;28;20033;-75
2022/11/05 12:42:50;;;;;;;;;;;;;;;12.93;63.64;95511.06;5049161;28;20096;-74
2022/11/05 12:45:18;;;;;;;;;;;;;;;12.36;64.07;95526.22;5049002;28;20108;-73
2022/11/05 12:47:55;;;;;;;;;;;;;;;11.46;67.33;95515.47;5049050;28;20489;-74
2022/11/05 12:50:32;;;;;;;;;;;;;;;12.29;64.62;95513.31;5048758;28;20028;-73
2022/11/05 12:53:16;;;;;;;;;;;;;;;12.31;64.17;95526.34;5049802;28;20103;-74
2022/11/05 12:55:43;;;;;;;;;;;;;;;12.53;63.52;95525.50;5047482;28;20016;-71
2022/11/05 12:58:29;;;;;;;;;;;;;;;12.59;63.75;95526.94;5049667;28;20009;-70
2022/11/05 13:00:57;;;;;;;;;;;;;;;12.66;63.28;95532.66;5049633;28;20006;-69
2022/11/05 13:03:29;;;;;;;;;;;;;;;12.85;62.39;95522.53;5064518;28;20013;-71
2022/11/05 13:05:57;;;;;;;;;;;;;;;13.13;61.39;95524.97;5047930;28;20010;-70
2022/11/05 13:08:35;;;;;;;;;;;;;;;12.98;61.46;95524.28;5050413;28;20010;-70
2022/11/05 13:11:13;;;;;;;;;;;;;;;12.93;61.46;95531.66;5048041;28;20056;-71
2022/11/05 13:13:45;;;;;;;;;;;;;;;12.35;64.50;95540.66;5064683;28;20013;-75
2022/11/05 13:16:10;;;;;;;;;;;;;;;12.74;63.15;95526.53;5048051;28;20012;-74
2022/11/05 13:18:47;;;;;;;;;;;;;;;12.57;63.30;95526.47;5048529;28;20013;-76
2022/11/05 13:21:13;;;;;;;;;;;;;;;11.69;65.62;95533.09;5048785;28;20069;-76
2022/11/05 13:23:50;;;;;;;;;;;;;;;11.66;66.83;95528.34;5080640;28;20378;-73
2022/11/05 13:26:18;;;;;;;;;;;;;;;11.90;66.06;95528.09;5049636;28;20009;-73
2022/11/05 13:28:50;;;;;;;;;;;;;;;11.38;66.95;95530.28;5049759;28;20485;-74
2022/11/05 13:31:20;;;;;;;;;;;;;;;11.52;67.11;95530.28;5048436;28;20009;-74
2022/11/05 13:33:47;;;;;;;;;;;;;;;12.00;65.39;95543.06;5049728;28;20080;-73